sensor_id;sensor_type;location;lat;lon;timestamp;P1;durP1;ratioP1;P2;durP2;ratioP2
22567;SDS011;11450;50.818;4.382;2022-09-21T00:00:21;14.25;;;8.40;;
22567;SDS011;11450;50.818;4.382;2022-09-21T00:02:50;11.30;;;7.28;;
22567;SDS011;11450;50.818;4.382;2022-09-21T00:05:20;13.32;;;7.57;;
22567;SDS011;11450;50.818;4.382;2022-09-21T00:07:46;8.10;;;6.93;;
22567;SDS011;11450;50.818;4.382;2022-09-21T00:10:12;13.23;;;7.38;;
22567;SDS011;11450;50.818;4.382;2022-09-21T00:12:38;10.13;;;7.55;;
22567;SDS011;11450;50.818;4.382;2022-09-21T00:17:55;10.85;;;6.35;;
22567;SDS011;11450;50.818;4.382;2022-09-21T00:20:22;10.23;;;6.15;;
22567;SDS011;11450;50.818;4.382;2022-09-21T00:22:49;13.10;;;5.93;;
22567;SDS011;11450;50.818;4.382;2022-09-21T00:25:15;8.60;;;5.13;;
22567;SDS011;11450;50.818;4.382;2022-09-21T00:27:42;10.00;;;5.25;;
22567;SDS011;11450;50.818;4.382;2022-09-21T00:33:20;7.53;;;4.75;;
22567;SDS011;11450;50.818;4.382;2022-09-21T00:35:46;12.73;;;5.40;;
22567;SDS011;11450;50.818;4.382;2022-09-21T00:38:12;14.40;;;5.30;;
22567;SDS011;11450;50.818;4.382;2022-09-21T00:40:37;11.40;;;5.90;;
22567;SDS011;11450;50.818;4.382;2022-09-21T00:43:10;11.18;;;6.22;;
22567;SDS011;11450;50.818;4.382;2022-09-21T00:45:37;10.18;;;6.18;;
22567;SDS011;11450;50.818;4.382;2022-09-21T00:48:02;8.70;;;5.55;;
22567;SDS011;11450;50.818;4.382;2022-09-21T00:50:28;9.50;;;5.28;;
22567;SDS011;11450;50.818;4.382;2022-09-21T00:52:54;9.65;;;5.32;;
22567;SDS011;11450;50.818;4.382;2022-09-21T00:55:32;10.50;;;6.18;;
22567;SDS011;11450;50.818;4.382;2022-09-21T00:58:03;9.77;;;5.95;;
22567;SDS011;11450;50.818;4.382;2022-09-21T01:00:33;14.05;;;7.15;;
22567;SDS011;11450;50.818;4.382;2022-09-21T01:03:00;9.18;;;5.80;;
22567;SDS011;11450;50.818;4.382;2022-09-21T01:05:27;10.10;;;6.20;;
22567;SDS011;11450;50.818;4.382;2022-09-21T01:07:53;9.60;;;6.38;;
22567;SDS011;11450;50.818;4.382;2022-09-21T01:10:20;9.70;;;6.45;;
22567;SDS011;11450;50.818;4.382;2022-09-21T01:18:25;8.95;;;6.10;;
22567;SDS011;11450;50.818;4.382;2022-09-21T01:21:15;8.50;;;5.80;;
22567;SDS011;11450;50.818;4.382;2022-09-21T01:26:25;9.45;;;6.25;;
22567;SDS011;11450;50.818;4.382;2022-09-21T01:31:57;9.35;;;6.03;;
22567;SDS011;11450;50.818;4.382;2022-09-21T01:34:27;9.85;;;6.13;;
22567;SDS011;11450;50.818;4.382;2022-09-21T01:37:07;11.55;;;5.93;;
22567;SDS011;11450;50.818;4.382;2022-09-21T01:39:42;10.88;;;6.40;;
22567;SDS011;11450;50.818;4.382;2022-09-21T01:42:11;9.07;;;6.20;;
22567;SDS011;11450;50.818;4.382;2022-09-21T01:44:40;10.68;;;6.00;;
22567;SDS011;11450;50.818;4.382;2022-09-21T01:47:08;6.25;;;5.35;;
22567;SDS011;11450;50.818;4.382;2022-09-21T01:49:40;10.40;;;5.38;;
22567;SDS011;11450;50.818;4.382;2022-09-21T01:52:15;10.57;;;6.43;;
22567;SDS011;11450;50.818;4.382;2022-09-21T01:54:47;8.38;;;6.47;;
22567;SDS011;11450;50.818;4.382;2022-09-21T01:59:51;12.60;;;6.35;;
22567;SDS011;11450;50.818;4.382;2022-09-21T02:05:10;11.52;;;6.63;;
22567;SDS011;11450;50.818;4.382;2022-09-21T02:07:37;10.15;;;5.93;;
22567;SDS011;11450;50.818;4.382;2022-09-21T02:10:04;10.73;;;6.32;;
22567;SDS011;11450;50.818;4.382;2022-09-21T02:12:33;10.15;;;6.38;;
22567;SDS011;11450;50.818;4.382;2022-09-21T02:14:59;8.50;;;6.50;;
22567;SDS011;11450;50.818;4.382;2022-09-21T02:20:18;8.25;;;6.00;;
22567;SDS011;11450;50.818;4.382;2022-09-21T02:23:00;8.70;;;5.82;;
22567;SDS011;11450;50.818;4.382;2022-09-21T02:28:37;10.00;;;5.75;;
22567;SDS011;11450;50.818;4.382;2022-09-21T02:31:29;9.73;;;6.10;;
22567;SDS011;11450;50.818;4.382;2022-09-21T02:34:27;13.05;;;5.90;;
22567;SDS011;11450;50.818;4.382;2022-09-21T02:37:13;9.15;;;5.90;;
22567;SDS011;11450;50.818;4.382;2022-09-21T02:42:33;15.38;;;6.60;;
22567;SDS011;11450;50.818;4.382;2022-09-21T02:45:07;9.68;;;5.43;;
22567;SDS011;11450;50.818;4.382;2022-09-21T02:47:44;9.45;;;6.00;;
22567;SDS011;11450;50.818;4.382;2022-09-21T02:50:30;9.40;;;5.03;;
22567;SDS011;11450;50.818;4.382;2022-09-21T02:53:12;7.70;;;4.80;;
22567;SDS011;11450;50.818;4.382;2022-09-21T02:55:42;9.48;;;5.85;;
22567;SDS011;11450;50.818;4.382;2022-09-21T02:58:11;12.02;;;5.47;;
22567;SDS011;11450;50.818;4.382;2022-09-21T03:00:40;8.55;;;5.05;;
22567;SDS011;11450;50.818;4.382;2022-09-21T03:03:15;8.10;;;4.78;;
22567;SDS011;11450;50.818;4.382;2022-09-21T03:05:43;11.27;;;5.10;;
22567;SDS011;11450;50.818;4.382;2022-09-21T03:08:12;6.72;;;5.00;;
22567;SDS011;11450;50.818;4.382;2022-09-21T03:10:38;7.80;;;4.95;;
22567;SDS011;11450;50.818;4.382;2022-09-21T03:13:04;9.25;;;5.20;;
22567;SDS011;11450;50.818;4.382;2022-09-21T03:15:36;10.48;;;4.78;;
22567;SDS011;11450;50.818;4.382;2022-09-21T03:18:06;9.95;;;4.78;;
22567;SDS011;11450;50.818;4.382;2022-09-21T03:20:37;7.55;;;4.57;;
22567;SDS011;11450;50.818;4.382;2022-09-21T03:23:04;12.13;;;4.72;;
22567;SDS011;11450;50.818;4.382;2022-09-21T03:25:30;6.45;;;4.70;;
22567;SDS011;11450;50.818;4.382;2022-09-21T03:27:57;6.85;;;4.78;;
22567;SDS011;11450;50.818;4.382;2022-09-21T03:30:23;11.15;;;4.72;;
22567;SDS011;11450;50.818;4.382;2022-09-21T03:32:53;7.50;;;4.65;;
22567;SDS011;11450;50.818;4.382;2022-09-21T03:35:20;6.22;;;4.60;;
22567;SDS011;11450;50.818;4.382;2022-09-21T03:37:47;7.25;;;4.82;;
22567;SDS011;11450;50.818;4.382;2022-09-21T03:40:14;7.10;;;4.85;;
22567;SDS011;11450;50.818;4.382;2022-09-21T03:42:41;7.22;;;5.30;;
22567;SDS011;11450;50.818;4.382;2022-09-21T03:45:08;8.00;;;5.28;;
22567;SDS011;11450;50.818;4.382;2022-09-21T03:47:35;9.55;;;5.55;;
22567;SDS011;11450;50.818;4.382;2022-09-21T03:50:01;9.60;;;5.03;;
22567;SDS011;11450;50.818;4.382;2022-09-21T03:52:27;8.85;;;5.20;;
22567;SDS011;11450;50.818;4.382;2022-09-21T03:54:52;8.48;;;4.95;;
22567;SDS011;11450;50.818;4.382;2022-09-21T03:57:19;8.70;;;4.63;;
22567;SDS011;11450;50.818;4.382;2022-09-21T03:59:45;6.35;;;4.55;;
22567;SDS011;11450;50.818;4.382;2022-09-21T04:02:11;7.97;;;4.57;;
22567;SDS011;11450;50.818;4.382;2022-09-21T04:04:36;6.72;;;4.57;;
22567;SDS011;11450;50.818;4.382;2022-09-21T04:07:02;7.43;;;4.35;;
22567;SDS011;11450;50.818;4.382;2022-09-21T04:09:28;10.32;;;5.38;;
22567;SDS011;11450;50.818;4.382;2022-09-21T04:11:55;6.30;;;4.47;;
22567;SDS011;11450;50.818;4.382;2022-09-21T04:14:20;8.27;;;5.13;;
22567;SDS011;11450;50.818;4.382;2022-09-21T04:16:47;9.88;;;5.43;;
22567;SDS011;11450;50.818;4.382;2022-09-21T04:19:13;10.88;;;5.07;;
22567;SDS011;11450;50.818;4.382;2022-09-21T04:21:40;7.22;;;4.65;;
22567;SDS011;11450;50.818;4.382;2022-09-21T04:24:05;8.70;;;5.25;;
22567;SDS011;11450;50.818;4.382;2022-09-21T04:26:32;6.88;;;4.75;;
22567;SDS011;11450;50.818;4.382;2022-09-21T04:28:58;12.15;;;5.40;;
22567;SDS011;11450;50.818;4.382;2022-09-21T04:31:24;5.97;;;5.15;;
22567;SDS011;11450;50.818;4.382;2022-09-21T04:33:51;16.58;;;6.20;;
22567;SDS011;11450;50.818;4.382;2022-09-21T04:36:18;9.00;;;5.07;;
22567;SDS011;11450;50.818;4.382;2022-09-21T04:38:45;8.38;;;5.45;;
22567;SDS011;11450;50.818;4.382;2022-09-21T04:41:12;10.18;;;5.43;;
22567;SDS011;11450;50.818;4.382;2022-09-21T04:43:41;9.50;;;5.07;;
22567;SDS011;11450;50.818;4.382;2022-09-21T04:46:09;10.65;;;5.97;;
22567;SDS011;11450;50.818;4.382;2022-09-21T04:48:37;9.27;;;5.03;;
22567;SDS011;11450;50.818;4.382;2022-09-21T04:51:03;8.45;;;5.22;;
22567;SDS011;11450;50.818;4.382;2022-09-21T04:53:33;9.23;;;5.53;;
22567;SDS011;11450;50.818;4.382;2022-09-21T04:56:01;6.75;;;4.95;;
22567;SDS011;11450;50.818;4.382;2022-09-21T04:58:27;7.00;;;5.10;;
22567;SDS011;11450;50.818;4.382;2022-09-21T05:00:53;9.25;;;5.80;;
22567;SDS011;11450;50.818;4.382;2022-09-21T05:03:20;8.43;;;5.65;;
22567;SDS011;11450;50.818;4.382;2022-09-21T05:05:50;7.97;;;5.30;;
22567;SDS011;11450;50.818;4.382;2022-09-21T05:08:17;9.55;;;4.80;;
22567;SDS011;11450;50.818;4.382;2022-09-21T05:11:06;9.30;;;5.68;;
22567;SDS011;11450;50.818;4.382;2022-09-21T05:13:34;12.32;;;6.28;;
22567;SDS011;11450;50.818;4.382;2022-09-21T05:15:59;18.75;;;7.10;;
22567;SDS011;11450;50.818;4.382;2022-09-21T05:18:25;10.93;;;5.90;;
22567;SDS011;11450;50.818;4.382;2022-09-21T05:20:54;9.45;;;5.65;;
22567;SDS011;11450;50.818;4.382;2022-09-21T05:23:21;8.30;;;5.90;;
22567;SDS011;11450;50.818;4.382;2022-09-21T05:25:48;9.77;;;6.22;;
22567;SDS011;11450;50.818;4.382;2022-09-21T05:28:14;10.93;;;6.13;;
22567;SDS011;11450;50.818;4.382;2022-09-21T05:30:43;113.95;;;14.48;;
22567;SDS011;11450;50.818;4.382;2022-09-21T05:33:13;11.75;;;6.90;;
22567;SDS011;11450;50.818;4.382;2022-09-21T05:40:54;12.60;;;6.18;;
22567;SDS011;11450;50.818;4.382;2022-09-21T05:43:23;24.67;;;6.53;;
22567;SDS011;11450;50.818;4.382;2022-09-21T05:45:50;13.20;;;5.88;;
22567;SDS011;11450;50.818;4.382;2022-09-21T05:48:28;13.43;;;5.90;;
22567;SDS011;11450;50.818;4.382;2022-09-21T05:51:13;10.40;;;5.80;;
22567;SDS011;11450;50.818;4.382;2022-09-21T06:02:16;22.10;;;6.82;;
22567;SDS011;11450;50.818;4.382;2022-09-21T06:05:03;16.02;;;5.88;;
22567;SDS011;11450;50.818;4.382;2022-09-21T06:07:34;13.77;;;6.38;;
22567;SDS011;11450;50.818;4.382;2022-09-21T06:10:00;16.98;;;6.75;;
22567;SDS011;11450;50.818;4.382;2022-09-21T06:12:25;16.85;;;7.47;;
22567;SDS011;11450;50.818;4.382;2022-09-21T06:14:51;20.17;;;7.90;;
22567;SDS011;11450;50.818;4.382;2022-09-21T06:17:19;21.60;;;7.40;;
22567;SDS011;11450;50.818;4.382;2022-09-21T06:19:45;14.32;;;7.38;;
22567;SDS011;11450;50.818;4.382;2022-09-21T06:22:11;11.57;;;7.63;;
22567;SDS011;11450;50.818;4.382;2022-09-21T06:24:36;25.80;;;7.85;;
22567;SDS011;11450;50.818;4.382;2022-09-21T06:27:02;24.33;;;9.90;;
22567;SDS011;11450;50.818;4.382;2022-09-21T06:29:28;13.75;;;9.15;;
22567;SDS011;11450;50.818;4.382;2022-09-21T06:31:53;19.38;;;9.38;;
22567;SDS011;11450;50.818;4.382;2022-09-21T06:34:19;21.73;;;9.02;;
22567;SDS011;11450;50.818;4.382;2022-09-21T06:36:45;22.73;;;9.57;;
22567;SDS011;11450;50.818;4.382;2022-09-21T06:39:11;24.92;;;9.30;;
22567;SDS011;11450;50.818;4.382;2022-09-21T06:41:37;34.10;;;13.00;;
22567;SDS011;11450;50.818;4.382;2022-09-21T06:44:03;40.45;;;11.30;;
22567;SDS011;11450;50.818;4.382;2022-09-21T06:46:30;43.55;;;16.13;;
22567;SDS011;11450;50.818;4.382;2022-09-21T06:48:56;47.75;;;12.02;;
22567;SDS011;11450;50.818;4.382;2022-09-21T06:51:21;37.70;;;11.85;;
22567;SDS011;11450;50.818;4.382;2022-09-21T06:53:48;38.60;;;12.40;;
22567;SDS011;11450;50.818;4.382;2022-09-21T06:56:18;28.52;;;11.07;;
22567;SDS011;11450;50.818;4.382;2022-09-21T06:58:43;19.65;;;11.50;;
22567;SDS011;11450;50.818;4.382;2022-09-21T07:01:11;18.17;;;11.52;;
22567;SDS011;11450;50.818;4.382;2022-09-21T07:03:38;15.30;;;10.65;;
22567;SDS011;11450;50.818;4.382;2022-09-21T07:06:06;20.92;;;11.43;;
22567;SDS011;11450;50.818;4.382;2022-09-21T07:08:32;21.55;;;13.02;;
22567;SDS011;11450;50.818;4.382;2022-09-21T07:10:59;16.48;;;12.10;;
22567;SDS011;11450;50.818;4.382;2022-09-21T07:13:26;21.92;;;13.48;;
22567;SDS011;11450;50.818;4.382;2022-09-21T07:15:52;19.92;;;12.65;;
22567;SDS011;11450;50.818;4.382;2022-09-21T07:18:19;24.52;;;16.48;;
22567;SDS011;11450;50.818;4.382;2022-09-21T07:20:45;16.45;;;12.60;;
22567;SDS011;11450;50.818;4.382;2022-09-21T07:23:14;24.02;;;16.60;;
22567;SDS011;11450;50.818;4.382;2022-09-21T07:25:41;21.83;;;13.45;;
22567;SDS011;11450;50.818;4.382;2022-09-21T07:28:08;16.27;;;11.70;;
22567;SDS011;11450;50.818;4.382;2022-09-21T07:30:36;18.75;;;11.23;;
22567;SDS011;11450;50.818;4.382;2022-09-21T07:33:03;22.65;;;12.10;;
22567;SDS011;11450;50.818;4.382;2022-09-21T07:35:29;27.83;;;12.95;;
22567;SDS011;11450;50.818;4.382;2022-09-21T07:38:00;19.48;;;11.27;;
22567;SDS011;11450;50.818;4.382;2022-09-21T07:40:27;17.08;;;11.07;;
22567;SDS011;11450;50.818;4.382;2022-09-21T07:42:56;21.13;;;12.18;;
22567;SDS011;11450;50.818;4.382;2022-09-21T07:45:23;14.27;;;11.52;;
22567;SDS011;11450;50.818;4.382;2022-09-21T07:47:50;25.45;;;12.27;;
22567;SDS011;11450;50.818;4.382;2022-09-21T07:50:18;21.92;;;12.38;;
22567;SDS011;11450;50.818;4.382;2022-09-21T07:52:45;13.00;;;11.30;;
22567;SDS011;11450;50.818;4.382;2022-09-21T07:55:11;19.95;;;9.82;;
22567;SDS011;11450;50.818;4.382;2022-09-21T07:57:37;17.92;;;11.00;;
22567;SDS011;11450;50.818;4.382;2022-09-21T08:00:35;19.65;;;11.57;;
22567;SDS011;11450;50.818;4.382;2022-09-21T08:03:02;15.13;;;10.90;;
22567;SDS011;11450;50.818;4.382;2022-09-21T08:05:28;19.00;;;10.52;;
22567;SDS011;11450;50.818;4.382;2022-09-21T08:07:55;26.98;;;13.98;;
22567;SDS011;11450;50.818;4.382;2022-09-21T08:10:22;21.63;;;11.23;;
22567;SDS011;11450;50.818;4.382;2022-09-21T08:12:49;17.77;;;10.57;;
22567;SDS011;11450;50.818;4.382;2022-09-21T08:15:15;12.85;;;9.40;;
22567;SDS011;11450;50.818;4.382;2022-09-21T08:17:41;17.90;;;9.73;;
22567;SDS011;11450;50.818;4.382;2022-09-21T08:20:08;20.27;;;10.20;;
22567;SDS011;11450;50.818;4.382;2022-09-21T08:22:34;15.23;;;9.10;;
22567;SDS011;11450;50.818;4.382;2022-09-21T08:25:00;16.25;;;9.45;;
22567;SDS011;11450;50.818;4.382;2022-09-21T08:27:27;13.98;;;9.57;;
22567;SDS011;11450;50.818;4.382;2022-09-21T08:29:52;18.13;;;9.45;;
22567;SDS011;11450;50.818;4.382;2022-09-21T08:32:21;8.60;;;6.50;;
22567;SDS011;11450;50.818;4.382;2022-09-21T08:34:47;15.38;;;8.80;;
22567;SDS011;11450;50.818;4.382;2022-09-21T08:37:13;13.55;;;7.38;;
22567;SDS011;11450;50.818;4.382;2022-09-21T08:39:39;11.25;;;5.68;;
22567;SDS011;11450;50.818;4.382;2022-09-21T08:45:15;12.57;;;7.10;;
22567;SDS011;11450;50.818;4.382;2022-09-21T08:47:50;12.25;;;5.03;;
22567;SDS011;11450;50.818;4.382;2022-09-21T08:53:13;9.05;;;3.45;;
22567;SDS011;11450;50.818;4.382;2022-09-21T08:55:46;10.35;;;3.45;;
22567;SDS011;11450;50.818;4.382;2022-09-21T08:58:19;5.07;;;2.83;;
22567;SDS011;11450;50.818;4.382;2022-09-21T09:00:47;12.85;;;3.83;;
22567;SDS011;11450;50.818;4.382;2022-09-21T09:03:28;10.07;;;3.53;;
22567;SDS011;11450;50.818;4.382;2022-09-21T09:06:44;8.13;;;2.80;;
22567;SDS011;11450;50.818;4.382;2022-09-21T09:18:08;9.95;;;2.90;;
22567;SDS011;11450;50.818;4.382;2022-09-21T09:20:38;5.00;;;2.25;;
22567;SDS011;11450;50.818;4.382;2022-09-21T09:23:11;5.65;;;1.88;;
22567;SDS011;11450;50.818;4.382;2022-09-21T09:25:48;10.43;;;2.58;;
22567;SDS011;11450;50.818;4.382;2022-09-21T09:28:23;4.75;;;2.05;;
22567;SDS011;11450;50.818;4.382;2022-09-21T09:31:11;5.32;;;1.90;;
22567;SDS011;11450;50.818;4.382;2022-09-21T09:36:20;20.38;;;11.80;;
22567;SDS011;11450;50.818;4.382;2022-09-21T09:39:00;12.77;;;3.95;;
22567;SDS011;11450;50.818;4.382;2022-09-21T09:50:00;15.15;;;3.45;;
22567;SDS011;11450;50.818;4.382;2022-09-21T09:52:29;9.73;;;2.83;;
22567;SDS011;11450;50.818;4.382;2022-09-21T09:54:57;7.75;;;2.78;;
22567;SDS011;11450;50.818;4.382;2022-09-21T09:57:35;6.07;;;2.72;;
22567;SDS011;11450;50.818;4.382;2022-09-21T10:00:02;8.95;;;3.00;;
22567;SDS011;11450;50.818;4.382;2022-09-21T10:02:33;14.40;;;4.22;;
22567;SDS011;11450;50.818;4.382;2022-09-21T10:05:21;13.25;;;3.25;;
22567;SDS011;11450;50.818;4.382;2022-09-21T10:07:56;10.57;;;3.30;;
22567;SDS011;11450;50.818;4.382;2022-09-21T10:12:55;11.88;;;2.72;;
22567;SDS011;11450;50.818;4.382;2022-09-21T10:15:27;10.02;;;2.42;;
22567;SDS011;11450;50.818;4.382;2022-09-21T10:18:05;7.15;;;2.25;;
22567;SDS011;11450;50.818;4.382;2022-09-21T10:20:50;15.27;;;2.65;;
22567;SDS011;11450;50.818;4.382;2022-09-21T10:23:26;8.18;;;2.20;;
22567;SDS011;11450;50.818;4.382;2022-09-21T10:25:58;16.70;;;2.55;;
22567;SDS011;11450;50.818;4.382;2022-09-21T10:28:36;15.30;;;2.58;;
22567;SDS011;11450;50.818;4.382;2022-09-21T10:31:22;13.85;;;1.95;;
22567;SDS011;11450;50.818;4.382;2022-09-21T10:33:50;7.03;;;1.83;;
22567;SDS011;11450;50.818;4.382;2022-09-21T10:36:34;5.03;;;2.00;;
22567;SDS011;11450;50.818;4.382;2022-09-21T10:39:20;8.27;;;1.50;;
22567;SDS011;11450;50.818;4.382;2022-09-21T10:41:49;7.80;;;1.30;;
22567;SDS011;11450;50.818;4.382;2022-09-21T10:44:22;6.70;;;1.30;;
22567;SDS011;11450;50.818;4.382;2022-09-21T10:46:52;6.70;;;1.83;;
22567;SDS011;11450;50.818;4.382;2022-09-21T10:49:20;3.55;;;1.40;;
22567;SDS011;11450;50.818;4.382;2022-09-21T10:51:48;4.63;;;1.55;;
22567;SDS011;11450;50.818;4.382;2022-09-21T10:54:22;4.55;;;1.60;;
22567;SDS011;11450;50.818;4.382;2022-09-21T10:56:57;7.63;;;1.35;;
22567;SDS011;11450;50.818;4.382;2022-09-21T10:59:27;12.27;;;2.47;;
22567;SDS011;11450;50.818;4.382;2022-09-21T11:01:58;14.80;;;2.30;;
22567;SDS011;11450;50.818;4.382;2022-09-21T11:07:09;8.65;;;1.92;;
22567;SDS011;11450;50.818;4.382;2022-09-21T11:09:52;5.05;;;1.35;;
22567;SDS011;11450;50.818;4.382;2022-09-21T11:20:46;7.10;;;1.60;;
22567;SDS011;11450;50.818;4.382;2022-09-21T11:23:20;4.30;;;1.20;;
22567;SDS011;11450;50.818;4.382;2022-09-21T11:31:43;10.60;;;2.08;;
22567;SDS011;11450;50.818;4.382;2022-09-21T11:34:48;8.70;;;1.55;;
22567;SDS011;11450;50.818;4.382;2022-09-21T11:48:00;3.03;;;0.82;;
22567;SDS011;11450;50.818;4.382;2022-09-21T11:50:42;3.95;;;1.20;;
22567;SDS011;11450;50.818;4.382;2022-09-21T11:53:29;4.75;;;1.02;;
22567;SDS011;11450;50.818;4.382;2022-09-21T11:59:10;8.10;;;1.27;;
22567;SDS011;11450;50.818;4.382;2022-09-21T12:02:14;3.80;;;1.50;;
22567;SDS011;11450;50.818;4.382;2022-09-21T12:05:14;11.30;;;2.05;;
22567;SDS011;11450;50.818;4.382;2022-09-21T12:08:03;4.72;;;1.42;;
22567;SDS011;11450;50.818;4.382;2022-09-21T12:13:39;10.23;;;1.63;;
22567;SDS011;11450;50.818;4.382;2022-09-21T12:16:37;3.63;;;1.10;;
22567;SDS011;11450;50.818;4.382;2022-09-21T12:19:22;4.72;;;1.38;;
22567;SDS011;11450;50.818;4.382;2022-09-21T12:22:09;16.52;;;1.92;;
22567;SDS011;11450;50.818;4.382;2022-09-21T12:24:41;10.15;;;2.05;;
22567;SDS011;11450;50.818;4.382;2022-09-21T12:27:14;11.65;;;1.40;;
22567;SDS011;11450;50.818;4.382;2022-09-21T12:29:44;11.73;;;1.77;;
22567;SDS011;11450;50.818;4.382;2022-09-21T12:32:18;3.85;;;1.00;;
22567;SDS011;11450;50.818;4.382;2022-09-21T12:34:54;7.15;;;0.85;;
22567;SDS011;11450;50.818;4.382;2022-09-21T12:37:31;2.50;;;1.00;;
22567;SDS011;11450;50.818;4.382;2022-09-21T12:40:32;7.10;;;1.05;;
22567;SDS011;11450;50.818;4.382;2022-09-21T12:43:18;3.75;;;1.08;;
22567;SDS011;11450;50.818;4.382;2022-09-21T12:46:12;5.30;;;1.23;;
22567;SDS011;11450;50.818;4.382;2022-09-21T12:48:44;3.67;;;0.85;;
22567;SDS011;11450;50.818;4.382;2022-09-21T12:53:57;6.47;;;1.15;;
22567;SDS011;11450;50.818;4.382;2022-09-21T12:59:24;8.00;;;1.13;;
22567;SDS011;11450;50.818;4.382;2022-09-21T13:08:09;6.65;;;1.13;;
22567;SDS011;11450;50.818;4.382;2022-09-21T13:15:57;4.35;;;1.30;;
22567;SDS011;11450;50.818;4.382;2022-09-21T13:18:28;9.68;;;1.38;;
22567;SDS011;11450;50.818;4.382;2022-09-21T13:21:16;6.15;;;0.82;;
22567;SDS011;11450;50.818;4.382;2022-09-21T13:23:50;8.10;;;1.10;;
22567;SDS011;11450;50.818;4.382;2022-09-21T13:26:39;2.85;;;0.90;;
22567;SDS011;11450;50.818;4.382;2022-09-21T13:31:59;6.43;;;1.17;;
22567;SDS011;11450;50.818;4.382;2022-09-21T13:34:45;6.80;;;1.55;;
22567;SDS011;11450;50.818;4.382;2022-09-21T13:47:42;5.80;;;1.52;;
22567;SDS011;11450;50.818;4.382;2022-09-21T13:50:10;9.07;;;1.35;;
22567;SDS011;11450;50.818;4.382;2022-09-21T13:52:52;6.03;;;1.17;;
22567;SDS011;11450;50.818;4.382;2022-09-21T13:55:33;6.88;;;1.23;;
22567;SDS011;11450;50.818;4.382;2022-09-21T13:58:15;6.35;;;1.20;;
22567;SDS011;11450;50.818;4.382;2022-09-21T14:03:36;2.75;;;1.00;;
22567;SDS011;11450;50.818;4.382;2022-09-21T14:06:06;4.97;;;1.05;;
22567;SDS011;11450;50.818;4.382;2022-09-21T14:08:44;8.35;;;1.38;;
22567;SDS011;11450;50.818;4.382;2022-09-21T14:11:30;6.93;;;1.45;;
22567;SDS011;11450;50.818;4.382;2022-09-21T14:24:37;4.78;;;1.17;;
22567;SDS011;11450;50.818;4.382;2022-09-21T14:29:54;6.65;;;1.40;;
22567;SDS011;11450;50.818;4.382;2022-09-21T14:32:27;6.53;;;1.52;;
22567;SDS011;11450;50.818;4.382;2022-09-21T14:34:59;10.90;;;2.00;;
22567;SDS011;11450;50.818;4.382;2022-09-21T14:37:37;4.15;;;1.40;;
22567;SDS011;11450;50.818;4.382;2022-09-21T14:42:49;6.30;;;1.20;;
22567;SDS011;11450;50.818;4.382;2022-09-21T14:45:17;11.98;;;1.98;;
22567;SDS011;11450;50.818;4.382;2022-09-21T15:04:06;5.63;;;1.30;;
22567;SDS011;11450;50.818;4.382;2022-09-21T15:10:09;8.80;;;1.30;;
22567;SDS011;11450;50.818;4.382;2022-09-21T15:18:23;3.13;;;1.08;;
22567;SDS011;11450;50.818;4.382;2022-09-21T15:20:53;3.20;;;1.10;;
22567;SDS011;11450;50.818;4.382;2022-09-21T15:23:28;28.75;;;3.00;;
22567;SDS011;11450;50.818;4.382;2022-09-21T15:26:04;3.33;;;0.88;;
22567;SDS011;11450;50.818;4.382;2022-09-21T15:28:35;3.90;;;1.10;;
22567;SDS011;11450;50.818;4.382;2022-09-21T15:31:07;7.47;;;1.20;;
22567;SDS011;11450;50.818;4.382;2022-09-21T15:33:40;9.52;;;1.27;;
22567;SDS011;11450;50.818;4.382;2022-09-21T15:36:10;5.47;;;1.17;;
22567;SDS011;11450;50.818;4.382;2022-09-21T15:38:47;6.15;;;1.60;;
22567;SDS011;11450;50.818;4.382;2022-09-21T15:44:20;10.45;;;1.40;;
22567;SDS011;11450;50.818;4.382;2022-09-21T15:46:49;6.28;;;1.38;;
22567;SDS011;11450;50.818;4.382;2022-09-21T15:49:19;4.60;;;1.60;;
22567;SDS011;11450;50.818;4.382;2022-09-21T15:51:46;7.15;;;1.17;;
22567;SDS011;11450;50.818;4.382;2022-09-21T15:56:57;5.65;;;1.35;;
22567;SDS011;11450;50.818;4.382;2022-09-21T15:59:24;4.75;;;0.90;;
22567;SDS011;11450;50.818;4.382;2022-09-21T16:01:55;7.38;;;1.30;;
22567;SDS011;11450;50.818;4.382;2022-09-21T16:04:24;7.07;;;1.20;;
22567;SDS011;11450;50.818;4.382;2022-09-21T16:07:04;4.35;;;1.05;;
22567;SDS011;11450;50.818;4.382;2022-09-21T16:15:15;11.55;;;1.50;;
22567;SDS011;11450;50.818;4.382;2022-09-21T16:18:03;12.35;;;2.00;;
22567;SDS011;11450;50.818;4.382;2022-09-21T16:20:44;6.18;;;1.20;;
22567;SDS011;11450;50.818;4.382;2022-09-21T16:23:15;3.70;;;1.20;;
22567;SDS011;11450;50.818;4.382;2022-09-21T16:25:43;7.80;;;1.52;;
22567;SDS011;11450;50.818;4.382;2022-09-21T16:30:50;3.75;;;1.10;;
22567;SDS011;11450;50.818;4.382;2022-09-21T16:33:37;7.53;;;1.58;;
22567;SDS011;11450;50.818;4.382;2022-09-21T16:38:44;6.13;;;1.67;;
22567;SDS011;11450;50.818;4.382;2022-09-21T16:41:14;4.97;;;1.38;;
22567;SDS011;11450;50.818;4.382;2022-09-21T16:43:40;9.68;;;1.45;;
22567;SDS011;11450;50.818;4.382;2022-09-21T16:46:10;15.15;;;7.05;;
22567;SDS011;11450;50.818;4.382;2022-09-21T16:48:37;9.63;;;3.45;;
22567;SDS011;11450;50.818;4.382;2022-09-21T16:51:04;8.75;;;1.58;;
22567;SDS011;11450;50.818;4.382;2022-09-21T16:53:35;17.27;;;1.55;;
22567;SDS011;11450;50.818;4.382;2022-09-21T16:56:01;6.80;;;1.40;;
22567;SDS011;11450;50.818;4.382;2022-09-21T16:58:27;27.27;;;2.95;;
22567;SDS011;11450;50.818;4.382;2022-09-21T17:00:53;7.78;;;1.42;;
22567;SDS011;11450;50.818;4.382;2022-09-21T17:03:19;9.55;;;1.65;;
22567;SDS011;11450;50.818;4.382;2022-09-21T17:05:45;6.13;;;1.58;;
22567;SDS011;11450;50.818;4.382;2022-09-21T17:08:11;19.08;;;2.08;;
22567;SDS011;11450;50.818;4.382;2022-09-21T17:10:40;21.45;;;3.67;;
22567;SDS011;11450;50.818;4.382;2022-09-21T17:13:09;5.57;;;1.52;;
22567;SDS011;11450;50.818;4.382;2022-09-21T17:15:36;11.32;;;1.95;;
22567;SDS011;11450;50.818;4.382;2022-09-21T17:18:05;12.82;;;6.30;;
22567;SDS011;11450;50.818;4.382;2022-09-21T17:20:41;7.88;;;2.97;;
22567;SDS011;11450;50.818;4.382;2022-09-21T17:23:08;7.40;;;2.72;;
22567;SDS011;11450;50.818;4.382;2022-09-21T17:25:34;8.43;;;2.97;;
22567;SDS011;11450;50.818;4.382;2022-09-21T17:28:01;9.68;;;2.90;;
22567;SDS011;11450;50.818;4.382;2022-09-21T17:30:29;9.40;;;3.55;;
22567;SDS011;11450;50.818;4.382;2022-09-21T17:32:56;7.90;;;2.17;;
22567;SDS011;11450;50.818;4.382;2022-09-21T17:35:32;6.78;;;2.22;;
22567;SDS011;11450;50.818;4.382;2022-09-21T17:38:02;8.50;;;3.47;;
22567;SDS011;11450;50.818;4.382;2022-09-21T17:40:30;5.15;;;2.20;;
22567;SDS011;11450;50.818;4.382;2022-09-21T17:43:01;11.55;;;2.63;;
22567;SDS011;11450;50.818;4.382;2022-09-21T17:45:54;6.10;;;3.00;;
22567;SDS011;11450;50.818;4.382;2022-09-21T17:48:28;17.48;;;3.30;;
22567;SDS011;11450;50.818;4.382;2022-09-21T17:50:54;8.75;;;2.95;;
22567;SDS011;11450;50.818;4.382;2022-09-21T17:53:20;10.60;;;6.65;;
22567;SDS011;11450;50.818;4.382;2022-09-21T17:55:59;11.15;;;4.93;;
22567;SDS011;11450;50.818;4.382;2022-09-21T17:59:00;10.57;;;3.55;;
22567;SDS011;11450;50.818;4.382;2022-09-21T18:03:58;12.68;;;4.68;;
22567;SDS011;11450;50.818;4.382;2022-09-21T18:06:24;21.15;;;5.95;;
22567;SDS011;11450;50.818;4.382;2022-09-21T18:08:50;11.38;;;5.00;;
22567;SDS011;11450;50.818;4.382;2022-09-21T18:14:13;14.18;;;6.20;;
22567;SDS011;11450;50.818;4.382;2022-09-21T18:22:35;16.45;;;7.97;;
22567;SDS011;11450;50.818;4.382;2022-09-21T18:25:14;16.88;;;7.30;;
22567;SDS011;11450;50.818;4.382;2022-09-21T18:27:46;13.73;;;7.40;;
22567;SDS011;11450;50.818;4.382;2022-09-21T18:30:14;13.32;;;7.50;;
22567;SDS011;11450;50.818;4.382;2022-09-21T18:36:04;29.05;;;7.97;;
22567;SDS011;11450;50.818;4.382;2022-09-21T18:38:21;14.50;;;8.65;;